createdAt,value
2023-05-05T00:01:26.810Z,101032.50
2023-05-05T00:03:53.476Z,101026.75
2023-05-05T00:06:20.265Z,101027.97
2023-05-05T00:08:47.141Z,101027.13
2023-05-05T00:11:13.867Z,101022.72
2023-05-05T00:13:43.067Z,101023.06
2023-05-05T00:16:09.822Z,101031.66
2023-05-05T00:18:36.496Z,101025.84
2023-05-05T00:21:03.323Z,101031.13
2023-05-05T00:23:30.091Z,101028.81
2023-05-05T00:25:56.872Z,101021.03
2023-05-05T00:28:23.878Z,101017.59
2023-05-05T00:30:50.568Z,101012.31
2023-05-05T00:33:17.285Z,101014.28
2023-05-05T00:35:43.937Z,101012.47
2023-05-05T00:38:10.937Z,101009.00
2023-05-05T00:40:37.565Z,101007.31
2023-05-05T00:43:04.571Z,101009.88
2023-05-05T00:45:31.525Z,101008.09
2023-05-05T00:48:00.034Z,101009.81
2023-05-05T00:50:31.152Z,101013.34
2023-05-05T00:53:03.045Z,101009.22
2023-05-05T00:55:30.534Z,101014.50
2023-05-05T00:57:58.637Z,101013.13
2023-05-05T01:00:25.701Z,101002.97
2023-05-05T01:02:52.555Z,101012.66
2023-05-05T01:05:24.014Z,101016.25
2023-05-05T01:08:16.912Z,101007.75
2023-05-05T01:10:50.429Z,101016.91
2023-05-05T01:13:47.594Z,101013.09
2023-05-05T01:16:18.649Z,101010.53
2023-05-05T01:19:01.165Z,101007.25
2023-05-05T01:21:36.117Z,101001.69
2023-05-05T01:24:30.784Z,101004.75
2023-05-05T01:27:26.301Z,100997.88
2023-05-05T01:29:58.999Z,101006.22
2023-05-05T01:32:28.345Z,101003.53
2023-05-05T01:35:13.262Z,101004.94
2023-05-05T01:37:45.794Z,101004.03
2023-05-05T01:40:15.257Z,101003.44
2023-05-05T01:42:43.417Z,101001.97
2023-05-05T01:45:12.853Z,101008.88
2023-05-05T01:47:41.185Z,101006.69
2023-05-05T01:50:09.566Z,100999.66
2023-05-05T01:52:38.218Z,101006.09
2023-05-05T01:55:07.881Z,101002.06
2023-05-05T01:57:35.856Z,100994.34
2023-05-05T02:00:03.520Z,100998.84
2023-05-05T02:02:31.211Z,100999.03
2023-05-05T02:05:00.621Z,100996.69
2023-05-05T02:07:28.218Z,100990.69
2023-05-05T02:09:55.675Z,100995.47
2023-05-05T02:12:23.146Z,100992.47
2023-05-05T02:14:51.262Z,101002.97
2023-05-05T02:17:21.790Z,100999.38
2023-05-05T02:19:52.205Z,101007.47
2023-05-05T02:22:19.075Z,101001.97
2023-05-05T02:24:46.136Z,100990.31
2023-05-05T02:27:17.842Z,100995.09
2023-05-05T02:29:50.586Z,100996.78
2023-05-05T02:32:32.099Z,100997.38
2023-05-05T02:35:05.005Z,100996.41
2023-05-05T02:37:33.680Z,100991.69
2023-05-05T02:40:02.456Z,100995.59
2023-05-05T02:42:35.381Z,100991.59
2023-05-05T02:45:07.981Z,100985.91
2023-05-05T02:47:35.530Z,100991.00
2023-05-05T02:50:06.768Z,100995.03
2023-05-05T02:52:34.661Z,100995.25
2023-05-05T02:55:03.079Z,100996.06
2023-05-05T02:57:51.362Z,100987.47
2023-05-05T03:00:33.135Z,100989.81
2023-05-05T03:03:05.745Z,100990.31
2023-05-05T03:05:47.420Z,100996.84
2023-05-05T03:08:18.514Z,100991.25
2023-05-05T03:10:59.068Z,100996.22
2023-05-05T03:13:28.345Z,100997.34
2023-05-05T03:15:57.982Z,100993.44
2023-05-05T03:18:26.558Z,100999.63
2023-05-05T03:20:54.019Z,101001.88
2023-05-05T03:23:21.024Z,100987.91
2023-05-05T03:25:50.699Z,100991.81
2023-05-05T03:28:18.362Z,100994.25
2023-05-05T03:30:45.322Z,100995.63
2023-05-05T03:33:12.020Z,100995.94
2023-05-05T03:35:38.790Z,100992.97
2023-05-05T03:38:05.399Z,100997.94
2023-05-05T03:40:43.132Z,100994.53
2023-05-05T03:43:10.804Z,100999.25
2023-05-05T03:45:37.465Z,101008.59
2023-05-05T03:48:04.187Z,101006.25
2023-05-05T03:50:31.017Z,101009.75
2023-05-05T03:52:57.669Z,101002.28
2023-05-05T03:55:24.378Z,101015.34
2023-05-05T03:57:51.062Z,101014.69
2023-05-05T04:00:18.058Z,101015.50
2023-05-05T04:02:44.859Z,101012.31
2023-05-05T04:05:11.562Z,101021.13
2023-05-05T04:07:38.314Z,101025.19
2023-05-05T04:10:05.901Z,101025.34
2023-05-05T04:12:32.760Z,101019.75
2023-05-05T04:14:59.473Z,101033.56
2023-05-05T04:17:26.376Z,101032.97
2023-05-05T04:19:53.208Z,101036.94
2023-05-05T04:22:19.911Z,101033.25
2023-05-05T04:24:46.669Z,101042.09
2023-05-05T04:27:13.253Z,101035.38
2023-05-05T04:29:39.991Z,101042.03
2023-05-05T04:32:06.657Z,101042.63
2023-05-05T04:34:33.350Z,101056.03
2023-05-05T04:37:00.017Z,101055.31
2023-05-05T04:39:26.752Z,101058.69
2023-05-05T04:41:53.494Z,101059.06
2023-05-05T04:44:20.254Z,101054.56
2023-05-05T04:46:47.019Z,101058.94
2023-05-05T04:49:13.820Z,101062.31
2023-05-05T04:51:43.640Z,101060.09
2023-05-05T04:54:10.312Z,101058.13
2023-05-05T04:56:36.979Z,101058.66
2023-05-05T04:59:03.715Z,101065.75
2023-05-05T05:01:30.484Z,101068.69
2023-05-05T05:03:57.427Z,101065.09
2023-05-05T05:06:24.285Z,101076.84
2023-05-05T05:08:50.988Z,101070.38
2023-05-05T05:11:20.544Z,101073.28
2023-05-05T05:13:47.173Z,101071.63
2023-05-05T05:16:14.129Z,101071.31
2023-05-05T05:18:41.021Z,101074.31
2023-05-05T05:21:07.849Z,101075.78
2023-05-05T05:23:34.744Z,101074.50
2023-05-05T05:26:01.650Z,101070.13
2023-05-05T05:28:28.470Z,101076.22
2023-05-05T05:30:55.198Z,101070.31
2023-05-05T05:33:22.054Z,101068.19
2023-05-05T05:35:48.765Z,101076.13
2023-05-05T05:38:22.016Z,101077.50
2023-05-05T05:41:10.565Z,101086.16
2023-05-05T05:43:51.804Z,101084.78
2023-05-05T05:46:18.600Z,101079.25
2023-05-05T05:48:45.563Z,101086.94
2023-05-05T05:51:26.967Z,101084.13
2023-05-05T05:53:53.723Z,101082.53
2023-05-05T05:56:24.557Z,101093.13
2023-05-05T05:58:51.560Z,101092.47
2023-05-05T06:01:19.287Z,101094.16
2023-05-05T06:03:46.398Z,101086.50
2023-05-05T06:06:13.090Z,101094.75
2023-05-05T06:08:42.774Z,101098.19
2023-05-05T06:11:10.837Z,101109.53
2023-05-05T06:13:40.545Z,101107.53
2023-05-05T06:16:07.843Z,101102.13
2023-05-05T06:18:34.597Z,101086.13
2023-05-05T06:21:01.341Z,101088.38
2023-05-05T06:23:28.514Z,101105.91
2023-05-05T06:26:09.421Z,101101.13
2023-05-05T06:28:36.260Z,101098.75
2023-05-05T06:31:05.923Z,101092.97
2023-05-05T06:33:40.089Z,101085.81
2023-05-05T06:36:07.079Z,101110.19
2023-05-05T06:38:42.587Z,101102.25
2023-05-05T06:41:09.257Z,101109.69
2023-05-05T06:43:36.113Z,101104.94
2023-05-05T06:46:04.475Z,101105.88
2023-05-05T06:48:32.218Z,101109.44
2023-05-05T06:50:58.834Z,101104.63
2023-05-05T06:53:25.530Z,101110.03
2023-05-05T06:55:52.333Z,101108.53
2023-05-05T06:58:19.137Z,101104.13
2023-05-05T07:00:48.721Z,101097.53
2023-05-05T07:03:15.597Z,101100.56
2023-05-05T07:05:52.865Z,101103.44
2023-05-05T07:08:22.608Z,101094.00
2023-05-05T07:10:50.526Z,101096.88
2023-05-05T07:13:17.550Z,101099.88
2023-05-05T07:15:47.741Z,101096.06
2023-05-05T07:18:17.862Z,101094.47
2023-05-05T07:20:44.830Z,101087.41
2023-05-05T07:23:11.481Z,101094.81
2023-05-05T07:25:38.246Z,101103.44
2023-05-05T07:28:05.353Z,101094.50
2023-05-05T07:30:31.960Z,101094.13
2023-05-05T07:32:58.657Z,101087.41
2023-05-05T07:35:25.326Z,101095.38
2023-05-05T07:37:52.230Z,101094.59
2023-05-05T07:40:26.254Z,101091.19
2023-05-05T07:42:56.205Z,101094.16
2023-05-05T07:45:23.038Z,101089.19
2023-05-05T07:48:16.696Z,101087.78
2023-05-05T07:51:02.517Z,101090.00
2023-05-05T07:53:42.295Z,101086.91
2023-05-05T07:56:34.585Z,101094.53
2023-05-05T07:59:03.997Z,101082.59
2023-05-05T08:01:30.697Z,101085.50
2023-05-05T08:03:57.457Z,101087.38
2023-05-05T08:06:26.636Z,101081.13
2023-05-05T08:08:53.925Z,101083.44
2023-05-05T08:11:21.060Z,101078.63
2023-05-05T08:13:48.122Z,101077.72
2023-05-05T08:16:16.352Z,101072.00
2023-05-05T08:18:44.239Z,101078.63
2023-05-05T08:21:12.738Z,101077.38
2023-05-05T08:23:39.976Z,101085.09
2023-05-05T08:26:07.021Z,101086.31
2023-05-05T08:28:34.728Z,101088.41
2023-05-05T08:31:01.423Z,101085.34
2023-05-05T08:33:29.535Z,101083.47
2023-05-05T08:35:56.518Z,101075.38
2023-05-05T08:38:23.274Z,101076.56
2023-05-05T08:40:51.493Z,101077.34
2023-05-05T08:43:18.663Z,101073.03
2023-05-05T08:45:46.081Z,101078.94
2023-05-05T08:48:13.156Z,101068.22
2023-05-05T08:50:42.662Z,101071.72
2023-05-05T08:53:26.902Z,101071.28
2023-05-05T08:55:59.635Z,101065.41
2023-05-05T08:58:28.836Z,101064.91
2023-05-05T09:00:56.643Z,101072.44
2023-05-05T09:03:25.251Z,101067.66
2023-05-05T09:05:52.828Z,101061.13
2023-05-05T09:08:20.224Z,101067.22
2023-05-05T09:10:48.007Z,101063.44
2023-05-05T09:13:15.108Z,101063.94
2023-05-05T09:15:41.907Z,101067.66
2023-05-05T09:18:08.630Z,101066.47
2023-05-05T09:20:39.658Z,101069.19
2023-05-05T09:23:14.560Z,101063.94
2023-05-05T09:25:43.269Z,101068.00
2023-05-05T09:28:16.679Z,101070.56
2023-05-05T09:30:47.498Z,101064.78
2023-05-05T09:33:14.290Z,101073.38
2023-05-05T09:35:52.398Z,101072.84
2023-05-05T09:38:20.231Z,101068.31
2023-05-05T09:40:51.333Z,101062.72
2023-05-05T09:43:19.793Z,101060.81
2023-05-05T09:45:47.260Z,101063.03
2023-05-05T09:48:43.566Z,101063.66
2023-05-05T09:51:11.249Z,101059.16
2023-05-05T09:53:41.993Z,101051.72
2023-05-05T09:56:09.096Z,101051.16
2023-05-05T09:58:35.986Z,101051.44
2023-05-05T10:01:02.826Z,101051.19
2023-05-05T10:03:32.805Z,101059.75
2023-05-05T10:06:06.406Z,101055.50
2023-05-05T10:08:46.887Z,101055.72
2023-05-05T10:11:16.751Z,101044.88
2023-05-05T10:13:45.225Z,101046.09
2023-05-05T10:16:24.522Z,101038.78
2023-05-05T10:18:51.992Z,101024.75
2023-05-05T10:21:21.248Z,101034.78
2023-05-05T10:24:17.905Z,101038.03
2023-05-05T10:26:48.751Z,101030.38
2023-05-05T10:29:54.593Z,101026.59
2023-05-05T10:35:05.070Z,101030.00
2023-05-05T10:37:32.690Z,101018.84
2023-05-05T10:40:03.730Z,101020.91
2023-05-05T10:42:30.567Z,101014.56
2023-05-05T10:44:59.019Z,101013.81
2023-05-05T10:47:28.065Z,101010.03
2023-05-05T10:50:16.306Z,101002.84
2023-05-05T10:52:48.561Z,101010.38
2023-05-05T10:55:35.648Z,100992.63
2023-05-05T10:58:02.401Z,100990.97
2023-05-05T11:00:38.271Z,100996.97
2023-05-05T11:03:17.371Z,100985.84
2023-05-05T11:06:09.175Z,100986.94
2023-05-05T11:08:43.701Z,100984.88
2023-05-05T11:11:12.089Z,100971.03
2023-05-05T11:13:40.108Z,100974.47
2023-05-05T11:16:41.631Z,100974.75
2023-05-05T11:19:43.606Z,100963.47
2023-05-05T11:22:10.680Z,100966.03
2023-05-05T11:24:37.889Z,100961.00
2023-05-05T11:27:07.215Z,100962.00
2023-05-05T11:30:15.132Z,100960.53
2023-05-05T11:32:41.849Z,100962.22
2023-05-05T11:35:10.440Z,100949.47
2023-05-05T11:37:41.042Z,100951.38
2023-05-05T11:40:20.110Z,100954.31
2023-05-05T11:42:47.037Z,100944.06
2023-05-05T11:45:24.082Z,100945.97
2023-05-05T11:48:26.488Z,100948.63
2023-05-05T11:51:00.311Z,100945.53
2023-05-05T11:53:30.947Z,100940.22
2023-05-05T11:56:08.628Z,100945.97
2023-05-05T11:58:38.438Z,100939.34
2023-05-05T12:01:11.847Z,100943.56
2023-05-05T12:03:42.565Z,100934.75
2023-05-05T12:06:20.593Z,100935.81
2023-05-05T12:09:00.147Z,100927.19
2023-05-05T12:11:27.117Z,100926.31
2023-05-05T12:14:12.183Z,100924.38
2023-05-05T12:16:39.219Z,100927.63
2023-05-05T12:19:08.181Z,100922.78
2023-05-05T12:21:38.954Z,100919.44
2023-05-05T12:24:07.588Z,100914.53
2023-05-05T12:26:35.382Z,100916.56
2023-05-05T12:29:02.424Z,100907.56
2023-05-05T12:31:35.300Z,100904.06
2023-05-05T12:34:03.745Z,100907.28
2023-05-05T12:36:32.475Z,100897.22
2023-05-05T12:39:02.678Z,100891.78
2023-05-05T12:41:32.147Z,100895.22
2023-05-05T12:44:02.458Z,100906.00
2023-05-05T12:46:29.864Z,100900.13
2023-05-05T12:49:22.414Z,100896.09
2023-05-05T12:51:56.830Z,100896.53
2023-05-05T12:54:24.929Z,100888.44
2023-05-05T12:56:57.587Z,100886.31
2023-05-05T12:59:26.402Z,100888.38
2023-05-05T13:01:55.203Z,100885.50
2023-05-05T13:04:23.892Z,100882.41
2023-05-05T13:07:09.227Z,100875.66
2023-05-05T13:09:38.897Z,100871.69
2023-05-05T13:12:08.180Z,100869.50
2023-05-05T13:14:35.476Z,100872.16
2023-05-05T13:17:04.290Z,100860.81
2023-05-05T13:22:30.926Z,100849.09
2023-05-05T13:25:02.904Z,100843.78
2023-05-05T13:27:32.674Z,100854.63
2023-05-05T13:29:59.337Z,100845.09
2023-05-05T13:32:25.996Z,100845.13
2023-05-05T13:34:54.024Z,100849.63
2023-05-05T13:37:20.881Z,100836.84
2023-05-05T13:39:48.620Z,100826.97
2023-05-05T13:42:15.467Z,100831.66
2023-05-05T13:44:42.110Z,100828.16
2023-05-05T13:47:08.804Z,100830.59
2023-05-05T13:49:35.932Z,100820.44
2023-05-05T13:52:05.448Z,100826.38
2023-05-05T13:54:32.308Z,100818.66
2023-05-05T13:56:59.042Z,100819.47
2023-05-05T13:59:31.298Z,100811.81
2023-05-05T14:01:57.999Z,100816.34
2023-05-05T14:04:24.916Z,100812.31
2023-05-05T14:06:51.797Z,100811.16
2023-05-05T14:09:18.643Z,100802.28
2023-05-05T14:11:45.340Z,100799.56
2023-05-05T14:14:12.191Z,100802.31
2023-05-05T14:16:38.973Z,100810.59
2023-05-05T14:19:05.649Z,100804.22
2023-05-05T14:21:33.808Z,100800.66
2023-05-05T14:24:00.529Z,100801.25
2023-05-05T14:26:27.159Z,100802.28
2023-05-05T14:28:53.823Z,100794.09
2023-05-05T14:31:20.499Z,100796.53
2023-05-05T14:33:50.057Z,100794.38
2023-05-05T14:36:16.690Z,100794.91
2023-05-05T14:38:43.515Z,100794.72
2023-05-05T14:41:10.749Z,100786.50
2023-05-05T14:43:39.254Z,100791.91
2023-05-05T14:46:06.832Z,100793.47
2023-05-05T14:48:34.716Z,100787.25
2023-05-05T14:51:04.402Z,100787.34
2023-05-05T14:53:31.133Z,100791.97
2023-05-05T14:55:57.898Z,100790.66
2023-05-05T14:58:24.647Z,100789.97
2023-05-05T15:00:51.439Z,100791.59
2023-05-05T15:03:18.468Z,100779.59
2023-05-05T15:05:45.300Z,100785.94
2023-05-05T15:08:12.139Z,100790.84
2023-05-05T15:10:38.823Z,100791.13
2023-05-05T15:13:05.594Z,100798.25
2023-05-05T15:15:34.956Z,100787.84
2023-05-05T15:18:01.769Z,100794.97
2023-05-05T15:20:28.503Z,100790.22
2023-05-05T15:22:55.266Z,100785.19
2023-05-05T15:25:22.388Z,100792.66
2023-05-05T15:27:51.713Z,100785.47
2023-05-05T15:30:18.365Z,100786.34
2023-05-05T15:32:45.265Z,100792.00
2023-05-05T15:35:13.961Z,100789.34
2023-05-05T15:37:40.654Z,100793.75
2023-05-05T15:40:07.903Z,100790.75
2023-05-05T15:42:34.736Z,100793.50
2023-05-05T15:45:01.874Z,100789.22
2023-05-05T15:47:28.680Z,100791.16
2023-05-05T15:49:55.415Z,100784.31
2023-05-05T15:52:24.684Z,100780.91
2023-05-05T15:54:51.299Z,100786.00
2023-05-05T15:57:17.973Z,100786.81
2023-05-05T16:02:29.699Z,100790.81
2023-05-05T16:05:00.624Z,100790.81
2023-05-05T16:07:27.260Z,100787.19
2023-05-05T16:09:54.067Z,100781.09
2023-05-05T16:12:23.391Z,100789.47
2023-05-05T16:14:50.130Z,100781.00
2023-05-05T16:17:20.370Z,100778.28
2023-05-05T16:19:50.766Z,100774.63
2023-05-05T16:22:17.613Z,100775.41
2023-05-05T16:24:46.934Z,100777.06
2023-05-05T16:27:13.637Z,100771.44
2023-05-05T16:29:40.460Z,100775.72
2023-05-05T16:32:07.297Z,100778.06
2023-05-05T16:34:35.882Z,100772.78
2023-05-05T16:37:02.529Z,100780.44
2023-05-05T16:39:29.149Z,100767.88
2023-05-05T16:42:03.022Z,100774.97
2023-05-05T16:44:29.634Z,100776.34
2023-05-05T16:46:56.479Z,100778.69
2023-05-05T16:49:23.068Z,100768.88
2023-05-05T16:51:51.079Z,100774.06
2023-05-05T16:54:17.831Z,100767.88
2023-05-05T16:56:44.740Z,100769.41
2023-05-05T16:59:14.453Z,100769.66
2023-05-05T17:01:41.123Z,100766.75
2023-05-05T17:04:07.798Z,100771.84
2023-05-05T17:06:34.590Z,100767.75
2023-05-05T17:09:04.383Z,100769.28
2023-05-05T17:11:31.155Z,100765.22
2023-05-05T17:14:00.958Z,100769.78
2023-05-05T17:16:27.702Z,100774.47
2023-05-05T17:18:54.417Z,100765.13
2023-05-05T17:21:21.133Z,100769.72
2023-05-05T17:23:47.790Z,100768.72
2023-05-05T17:26:14.534Z,100775.75
2023-05-05T17:28:41.401Z,100772.75
2023-05-05T17:31:07.985Z,100778.72
2023-05-05T17:33:34.741Z,100765.28
2023-05-05T17:36:01.594Z,100769.50
2023-05-05T17:38:28.285Z,100770.00
2023-05-05T17:40:54.907Z,100771.91
2023-05-05T17:43:21.543Z,100763.13
2023-05-05T17:45:48.316Z,100764.53
2023-05-05T17:48:15.125Z,100773.06
2023-05-05T17:50:43.382Z,100770.38
2023-05-05T17:53:10.229Z,100770.03
2023-05-05T17:55:36.860Z,100772.03
2023-05-05T17:58:03.502Z,100776.72
2023-05-05T18:00:30.267Z,100771.69
2023-05-05T18:02:56.957Z,100780.66
2023-05-05T18:05:23.853Z,100780.44
2023-05-05T18:07:50.487Z,100779.38
2023-05-05T18:10:17.342Z,100776.66
2023-05-05T18:12:44.186Z,100785.66
2023-05-05T18:15:12.043Z,100791.56
2023-05-05T18:17:39.068Z,100785.47
2023-05-05T18:20:06.902Z,100786.50
2023-05-05T18:22:34.228Z,100785.91
2023-05-05T18:25:00.982Z,100789.75
2023-05-05T18:27:29.945Z,100796.25
2023-05-05T18:29:56.989Z,100794.63
2023-05-05T18:32:23.854Z,100796.47
2023-05-05T18:34:50.571Z,100797.38
2023-05-05T18:37:17.213Z,100798.53
2023-05-05T18:39:44.129Z,100801.91
2023-05-05T18:42:10.957Z,100795.66
2023-05-05T18:44:37.798Z,100795.06
2023-05-05T18:47:04.805Z,100799.22
2023-05-05T18:49:31.789Z,100793.00
2023-05-05T18:51:58.425Z,100802.78
2023-05-05T18:54:25.187Z,100806.28
2023-05-05T18:56:51.870Z,100801.81
2023-05-05T18:59:18.667Z,100803.16
2023-05-05T19:01:45.534Z,100807.31
2023-05-05T19:04:22.835Z,100799.09
2023-05-05T19:06:56.527Z,100799.09
2023-05-05T19:09:23.149Z,100803.06
2023-05-05T19:11:49.914Z,100799.78
2023-05-05T19:14:16.651Z,100800.31
2023-05-05T19:16:43.346Z,100807.94
2023-05-05T19:19:10.000Z,100807.78
2023-05-05T19:21:36.710Z,100800.44
2023-05-05T19:24:05.499Z,100806.91
2023-05-05T19:26:32.215Z,100807.41
2023-05-05T19:28:59.642Z,100794.59
2023-05-05T19:31:26.377Z,100794.47
2023-05-05T19:33:57.575Z,100796.44
2023-05-05T19:36:24.438Z,100792.00
2023-05-05T19:38:51.165Z,100788.91
2023-05-05T19:41:17.828Z,100789.56
2023-05-05T19:43:44.544Z,100789.41
2023-05-05T19:46:11.288Z,100790.91
2023-05-05T19:48:38.186Z,100781.03
2023-05-05T19:51:04.997Z,100789.56
2023-05-05T19:53:34.636Z,100790.09
2023-05-05T19:56:01.307Z,100787.63
2023-05-05T19:58:27.882Z,100781.22
2023-05-05T20:00:54.538Z,100774.28
2023-05-05T20:03:21.290Z,100786.66
2023-05-05T20:05:48.358Z,100783.84
2023-05-05T20:08:14.970Z,100790.13
2023-05-05T20:10:41.637Z,100780.28
2023-05-05T20:13:08.378Z,100785.69
2023-05-05T20:15:37.827Z,100787.38
2023-05-05T20:18:04.600Z,100785.22
2023-05-05T20:20:32.438Z,100789.00
2023-05-05T20:22:59.253Z,100788.19
2023-05-05T20:25:25.929Z,100783.56
2023-05-05T20:27:52.589Z,100785.41
2023-05-05T20:30:19.192Z,100782.75
2023-05-05T20:32:45.832Z,100785.25
2023-05-05T20:35:12.633Z,100784.06
2023-05-05T20:37:39.307Z,100772.88
2023-05-05T20:40:07.264Z,100773.56
2023-05-05T20:42:34.124Z,100774.72
2023-05-05T20:45:01.220Z,100781.44
2023-05-05T20:47:28.020Z,100771.06
2023-05-05T20:49:56.787Z,100775.53
2023-05-05T20:52:23.430Z,100780.63
2023-05-05T20:54:50.416Z,100781.78
2023-05-05T20:57:17.038Z,100780.78
2023-05-05T20:59:43.829Z,100783.06
2023-05-05T21:02:10.622Z,100779.00
2023-05-05T21:04:39.421Z,100777.66
2023-05-05T21:07:06.034Z,100787.03
2023-05-05T21:09:32.766Z,100781.44
2023-05-05T21:11:59.518Z,100785.19
2023-05-05T21:14:26.147Z,100787.19
2023-05-05T21:16:52.974Z,100793.41
2023-05-05T21:19:19.635Z,100787.31
2023-05-05T21:21:46.434Z,100777.31
2023-05-05T21:24:13.529Z,100786.50
2023-05-05T21:26:44.580Z,100778.78
2023-05-05T21:29:11.510Z,100778.09
2023-05-05T21:31:41.235Z,100771.16
2023-05-05T21:34:07.869Z,100776.69
2023-05-05T21:36:34.526Z,100781.44
2023-05-05T21:39:01.165Z,100788.97
2023-05-05T21:41:31.114Z,100783.19
2023-05-05T21:43:58.203Z,100787.50
2023-05-05T21:46:24.930Z,100794.38
2023-05-05T21:48:51.613Z,100789.00
2023-05-05T21:51:22.204Z,100785.22
2023-05-05T21:53:49.308Z,100787.81
2023-05-05T21:56:16.057Z,100785.53
2023-05-05T21:58:42.641Z,100784.84
2023-05-05T22:01:09.339Z,100784.16
2023-05-05T22:03:36.070Z,100781.34
2023-05-05T22:06:02.889Z,100776.84
2023-05-05T22:08:29.516Z,100776.06
2023-05-05T22:10:56.164Z,100775.25
2023-05-05T22:13:22.916Z,100772.16
2023-05-05T22:15:49.559Z,100776.75
2023-05-05T22:18:16.300Z,100780.53
2023-05-05T22:20:43.034Z,100779.50
2023-05-05T22:23:09.818Z,100778.00
2023-05-05T22:25:36.521Z,100773.56
2023-05-05T22:28:03.394Z,100774.06
2023-05-05T22:30:30.090Z,100768.31
2023-05-05T22:32:56.974Z,100765.66
2023-05-05T22:35:23.703Z,100761.41
2023-05-05T22:37:50.504Z,100761.41
2023-05-05T22:40:17.266Z,100760.84
2023-05-05T22:42:44.179Z,100762.16
2023-05-05T22:45:11.519Z,100755.00
2023-05-05T22:47:38.590Z,100758.44
2023-05-05T22:50:05.957Z,100751.22
2023-05-05T22:52:35.474Z,100751.88
2023-05-05T22:55:02.453Z,100745.69
2023-05-05T22:57:34.380Z,100745.81
2023-05-05T23:00:02.514Z,100750.16
2023-05-05T23:02:32.504Z,100759.38
2023-05-05T23:04:59.200Z,100749.56
2023-05-05T23:07:25.788Z,100745.78
2023-05-05T23:09:52.563Z,100749.50
2023-05-05T23:12:19.359Z,100746.22
2023-05-05T23:14:46.098Z,100743.13
2023-05-05T23:17:12.746Z,100744.41
2023-05-05T23:19:39.461Z,100742.31
2023-05-05T23:22:06.184Z,100734.69
2023-05-05T23:24:32.830Z,100735.22
2023-05-05T23:27:01.250Z,100725.34
2023-05-05T23:29:28.154Z,100733.88
2023-05-05T23:31:58.166Z,100733.19
2023-05-05T23:34:27.340Z,100726.69
2023-05-05T23:36:54.021Z,100723.72
2023-05-05T23:39:23.439Z,100723.69
2023-05-05T23:41:50.147Z,100722.03
2023-05-05T23:44:16.737Z,100729.06
2023-05-05T23:46:46.364Z,100721.00
2023-05-05T23:49:12.978Z,100718.22
2023-05-05T23:51:40.769Z,100718.69
2023-05-05T23:54:07.445Z,100722.56
2023-05-05T23:56:34.176Z,100732.44
2023-05-05T23:59:00.889Z,100727.34
